sensor_id;sensor_type;location;lat;lon;timestamp;pressure;altitude;pressure_sealevel;temperature;humidity
37170;BME280;23062;13.952;100.608;2023-02-12T00:01:12;1011.43;;;29.78;66.82
37170;BME280;23062;13.952;100.608;2023-02-12T00:05:38;1011.49;;;29.84;66.61
37170;BME280;23062;13.952;100.608;2023-02-12T00:10:11;1011.51;;;29.85;66.78
37170;BME280;23062;13.952;100.608;2023-02-12T00:14:39;1011.58;;;29.81;66.84
37170;BME280;23062;13.952;100.608;2023-02-12T00:19:04;1011.61;;;29.82;67.04
37170;BME280;23062;13.952;100.608;2023-02-12T00:23:32;1011.71;;;29.72;67.71
37170;BME280;23062;13.952;100.608;2023-02-12T00:27:58;1011.72;;;29.74;67.76
37170;BME280;23062;13.952;100.608;2023-02-12T00:32:23;1011.78;;;29.74;67.86
37170;BME280;23062;13.952;100.608;2023-02-12T00:36:49;1011.78;;;29.78;68.14
37170;BME280;23062;13.952;100.608;2023-02-12T00:41:14;1011.84;;;29.77;68.41
37170;BME280;23062;13.952;100.608;2023-02-12T00:45:41;1011.92;;;29.81;68.22
37170;BME280;23062;13.952;100.608;2023-02-12T00:50:08;1012.05;;;29.80;68.33
37170;BME280;23062;13.952;100.608;2023-02-12T00:54:37;1012.12;;;29.81;68.16
37170;BME280;23062;13.952;100.608;2023-02-12T00:59:03;1012.21;;;29.88;68.00
37170;BME280;23062;13.952;100.608;2023-02-12T01:03:29;1012.24;;;29.93;67.91
37170;BME280;23062;13.952;100.608;2023-02-12T01:07:55;1012.38;;;29.97;67.58
37170;BME280;23062;13.952;100.608;2023-02-12T01:12:21;1012.37;;;30.00;67.52
37170;BME280;23062;13.952;100.608;2023-02-12T01:16:50;1012.46;;;30.06;67.22
37170;BME280;23062;13.952;100.608;2023-02-12T01:21:25;1012.44;;;30.16;66.95
37170;BME280;23062;13.952;100.608;2023-02-12T01:25:47;1012.45;;;30.23;66.64
37170;BME280;23062;13.952;100.608;2023-02-12T01:30:14;1012.52;;;30.24;66.63
37170;BME280;23062;13.952;100.608;2023-02-12T01:34:40;1012.54;;;30.32;66.42
37170;BME280;23062;13.952;100.608;2023-02-12T01:39:07;1012.64;;;30.32;66.22
37170;BME280;23062;13.952;100.608;2023-02-12T01:43:35;1012.67;;;30.14;66.17
37170;BME280;23062;13.952;100.608;2023-02-12T01:48:01;1012.80;;;30.16;65.85
37170;BME280;23062;13.952;100.608;2023-02-12T01:52:29;1012.86;;;30.17;65.61
37170;BME280;23062;13.952;100.608;2023-02-12T01:56:55;1012.94;;;30.23;65.17
37170;BME280;23062;13.952;100.608;2023-02-12T02:01:27;1012.96;;;30.31;64.60
37170;BME280;23062;13.952;100.608;2023-02-12T02:10:37;1013.05;;;30.36;63.84
37170;BME280;23062;13.952;100.608;2023-02-12T02:15:29;1013.07;;;30.38;63.78
37170;BME280;23062;13.952;100.608;2023-02-12T02:29:34;1013.12;;;30.55;63.39
37170;BME280;23062;13.952;100.608;2023-02-12T02:34:02;1013.17;;;30.59;63.00
37170;BME280;23062;13.952;100.608;2023-02-12T02:38:54;1013.21;;;30.63;63.01
37170;BME280;23062;13.952;100.608;2023-02-12T02:43:27;1013.17;;;30.67;63.09
37170;BME280;23062;13.952;100.608;2023-02-12T02:52:48;1013.22;;;30.76;62.76
37170;BME280;23062;13.952;100.608;2023-02-12T03:01:53;1013.27;;;30.80;62.12
37170;BME280;23062;13.952;100.608;2023-02-12T03:06:31;1013.21;;;30.97;61.68
37170;BME280;23062;13.952;100.608;2023-02-12T03:10:58;1013.21;;;31.05;61.27
37170;BME280;23062;13.952;100.608;2023-02-12T03:15:36;1013.21;;;31.06;61.22
37170;BME280;23062;13.952;100.608;2023-02-12T03:24:45;1013.08;;;31.08;60.98
37170;BME280;23062;13.952;100.608;2023-02-12T03:29:11;1013.07;;;31.10;60.79
37170;BME280;23062;13.952;100.608;2023-02-12T03:34:00;1013.10;;;31.11;60.70
37170;BME280;23062;13.952;100.608;2023-02-12T03:38:47;1013.00;;;31.14;60.50
37170;BME280;23062;13.952;100.608;2023-02-12T03:43:13;1012.92;;;31.14;60.55
37170;BME280;23062;13.952;100.608;2023-02-12T03:48:00;1012.89;;;31.16;60.44
37170;BME280;23062;13.952;100.608;2023-02-12T03:52:23;1012.82;;;31.18;60.30
37170;BME280;23062;13.952;100.608;2023-02-12T04:01:34;1012.72;;;31.22;60.07
37170;BME280;23062;13.952;100.608;2023-02-12T04:06:00;1012.68;;;31.23;59.94
37170;BME280;23062;13.952;100.608;2023-02-12T04:15:28;1012.54;;;31.28;59.80
37170;BME280;23062;13.952;100.608;2023-02-12T04:24:57;1012.40;;;31.30;59.60
37170;BME280;23062;13.952;100.608;2023-02-12T04:29:48;1012.28;;;31.32;59.48
37170;BME280;23062;13.952;100.608;2023-02-12T04:34:26;1012.26;;;31.34;59.38
37170;BME280;23062;13.952;100.608;2023-02-12T04:39:03;1012.18;;;31.36;59.29
37170;BME280;23062;13.952;100.608;2023-02-12T04:43:34;1012.03;;;31.35;59.18
37170;BME280;23062;13.952;100.608;2023-02-12T04:48:00;1011.97;;;31.38;59.12
37170;BME280;23062;13.952;100.608;2023-02-12T04:52:27;1011.93;;;31.38;59.04
37170;BME280;23062;13.952;100.608;2023-02-12T04:56:53;1011.87;;;31.41;58.97
37170;BME280;23062;13.952;100.608;2023-02-12T05:01:18;1011.82;;;31.41;58.74
37170;BME280;23062;13.952;100.608;2023-02-12T05:05:44;1011.78;;;31.43;58.75
37170;BME280;23062;13.952;100.608;2023-02-12T05:10:10;1011.70;;;31.43;58.70
37170;BME280;23062;13.952;100.608;2023-02-12T05:14:38;1011.66;;;31.43;58.56
37170;BME280;23062;13.952;100.608;2023-02-12T05:19:10;1011.52;;;31.46;58.33
37170;BME280;23062;13.952;100.608;2023-02-12T05:23:37;1011.46;;;31.49;58.11
37170;BME280;23062;13.952;100.608;2023-02-12T05:28:03;1011.34;;;31.51;57.87
37170;BME280;23062;13.952;100.608;2023-02-12T05:32:30;1011.21;;;31.51;57.96
37170;BME280;23062;13.952;100.608;2023-02-12T05:36:55;1011.22;;;31.53;57.76
37170;BME280;23062;13.952;100.608;2023-02-12T05:41:23;1011.11;;;31.55;57.67
37170;BME280;23062;13.952;100.608;2023-02-12T05:45:49;1011.07;;;31.57;57.50
37170;BME280;23062;13.952;100.608;2023-02-12T05:50:18;1010.99;;;31.59;57.36
37170;BME280;23062;13.952;100.608;2023-02-12T05:54:44;1010.97;;;31.59;57.37
37170;BME280;23062;13.952;100.608;2023-02-12T05:59:18;1010.75;;;31.61;57.31
37170;BME280;23062;13.952;100.608;2023-02-12T06:03:44;1010.65;;;31.64;57.09
37170;BME280;23062;13.952;100.608;2023-02-12T06:08:12;1010.62;;;31.64;56.95
37170;BME280;23062;13.952;100.608;2023-02-12T06:12:37;1010.52;;;31.65;56.78
37170;BME280;23062;13.952;100.608;2023-02-12T06:17:05;1010.45;;;31.67;56.75
37170;BME280;23062;13.952;100.608;2023-02-12T06:21:37;1010.36;;;31.68;56.66
37170;BME280;23062;13.952;100.608;2023-02-12T06:26:03;1010.28;;;31.69;56.66
37170;BME280;23062;13.952;100.608;2023-02-12T06:30:29;1010.27;;;31.70;56.49
37170;BME280;23062;13.952;100.608;2023-02-12T06:34:54;1010.20;;;31.73;56.44
37170;BME280;23062;13.952;100.608;2023-02-12T06:39:20;1010.14;;;31.78;56.19
37170;BME280;23062;13.952;100.608;2023-02-12T06:43:46;1010.07;;;31.79;56.03
37170;BME280;23062;13.952;100.608;2023-02-12T06:48:12;1009.96;;;31.79;56.08
37170;BME280;23062;13.952;100.608;2023-02-12T06:52:38;1009.90;;;31.80;56.11
37170;BME280;23062;13.952;100.608;2023-02-12T06:57:04;1009.76;;;31.78;55.95
37170;BME280;23062;13.952;100.608;2023-02-12T07:01:30;1009.72;;;31.82;55.82
37170;BME280;23062;13.952;100.608;2023-02-12T07:05:56;1009.63;;;31.84;55.81
37170;BME280;23062;13.952;100.608;2023-02-12T07:10:22;1009.56;;;31.84;55.69
37170;BME280;23062;13.952;100.608;2023-02-12T07:14:47;1009.52;;;31.83;55.61
37170;BME280;23062;13.952;100.608;2023-02-12T07:19:13;1009.40;;;31.84;55.55
37170;BME280;23062;13.952;100.608;2023-02-12T07:23:40;1009.42;;;31.84;55.48
37170;BME280;23062;13.952;100.608;2023-02-12T07:28:08;1009.32;;;31.85;55.55
37170;BME280;23062;13.952;100.608;2023-02-12T07:32:37;1009.23;;;31.86;55.52
37170;BME280;23062;13.952;100.608;2023-02-12T07:37:06;1009.17;;;31.86;55.38
37170;BME280;23062;13.952;100.608;2023-02-12T07:41:33;1009.14;;;31.87;55.06
37170;BME280;23062;13.952;100.608;2023-02-12T07:46:15;1009.07;;;31.90;54.92
37170;BME280;23062;13.952;100.608;2023-02-12T07:50:37;1009.01;;;31.93;54.69
37170;BME280;23062;13.952;100.608;2023-02-12T07:55:03;1008.98;;;31.94;54.66
37170;BME280;23062;13.952;100.608;2023-02-12T07:59:29;1008.85;;;31.98;54.67
37170;BME280;23062;13.952;100.608;2023-02-12T08:03:57;1008.91;;;31.99;54.76
37170;BME280;23062;13.952;100.608;2023-02-12T08:08:24;1008.87;;;31.99;54.61
37170;BME280;23062;13.952;100.608;2023-02-12T08:12:50;1008.73;;;31.99;54.42
37170;BME280;23062;13.952;100.608;2023-02-12T08:17:18;1008.76;;;32.00;54.35
37170;BME280;23062;13.952;100.608;2023-02-12T08:21:43;1008.67;;;32.01;54.02
37170;BME280;23062;13.952;100.608;2023-02-12T08:26:21;1008.66;;;32.02;54.02
37170;BME280;23062;13.952;100.608;2023-02-12T08:30:47;1008.71;;;32.06;53.84
37170;BME280;23062;13.952;100.608;2023-02-12T08:35:14;1008.66;;;32.07;53.43
37170;BME280;23062;13.952;100.608;2023-02-12T08:39:39;1008.76;;;31.99;53.30
37170;BME280;23062;13.952;100.608;2023-02-12T08:44:05;1008.72;;;32.07;52.98
37170;BME280;23062;13.952;100.608;2023-02-12T08:48:31;1008.67;;;32.05;52.86
37170;BME280;23062;13.952;100.608;2023-02-12T08:52:57;1008.75;;;31.97;53.30
37170;BME280;23062;13.952;100.608;2023-02-12T08:57:25;1008.70;;;32.24;52.10
37170;BME280;23062;13.952;100.608;2023-02-12T09:01:51;1008.72;;;32.12;53.24
37170;BME280;23062;13.952;100.608;2023-02-12T09:06:19;1008.72;;;32.12;53.10
37170;BME280;23062;13.952;100.608;2023-02-12T09:10:46;1008.70;;;31.96;53.87
37170;BME280;23062;13.952;100.608;2023-02-12T09:15:11;1008.76;;;31.99;53.65
37170;BME280;23062;13.952;100.608;2023-02-12T09:19:36;1008.68;;;32.05;53.19
37170;BME280;23062;13.952;100.608;2023-02-12T09:24:02;1008.73;;;31.99;55.07
37170;BME280;23062;13.952;100.608;2023-02-12T09:28:35;1008.68;;;32.03;54.67
37170;BME280;23062;13.952;100.608;2023-02-12T09:33:01;1008.77;;;32.10;53.54
37170;BME280;23062;13.952;100.608;2023-02-12T09:37:27;1008.76;;;32.31;51.76
37170;BME280;23062;13.952;100.608;2023-02-12T09:46:59;1008.80;;;32.29;51.86
37170;BME280;23062;13.952;100.608;2023-02-12T09:51:26;1008.79;;;32.27;51.69
37170;BME280;23062;13.952;100.608;2023-02-12T09:55:52;1008.82;;;32.30;51.55
37170;BME280;23062;13.952;100.608;2023-02-12T10:00:31;1008.78;;;32.16;52.26
37170;BME280;23062;13.952;100.608;2023-02-12T10:04:56;1008.76;;;32.13;52.36
37170;BME280;23062;13.952;100.608;2023-02-12T10:09:33;1008.77;;;32.19;52.13
37170;BME280;23062;13.952;100.608;2023-02-12T10:14:17;1008.78;;;32.19;51.85
37170;BME280;23062;13.952;100.608;2023-02-12T10:18:50;1008.76;;;32.09;52.53
37170;BME280;23062;13.952;100.608;2023-02-12T10:27:53;1008.91;;;32.11;51.64
37170;BME280;23062;13.952;100.608;2023-02-12T10:32:32;1008.89;;;32.13;51.27
37170;BME280;23062;13.952;100.608;2023-02-12T10:41:32;1009.01;;;32.01;51.13
37170;BME280;23062;13.952;100.608;2023-02-12T10:46:01;1009.03;;;31.99;51.00
37170;BME280;23062;13.952;100.608;2023-02-12T10:55:02;1009.13;;;31.96;51.73
37170;BME280;23062;13.952;100.608;2023-02-12T10:59:30;1009.11;;;31.95;51.09
37170;BME280;23062;13.952;100.608;2023-02-12T11:03:57;1009.17;;;31.94;50.83
37170;BME280;23062;13.952;100.608;2023-02-12T11:08:29;1009.15;;;31.97;50.08
37170;BME280;23062;13.952;100.608;2023-02-12T11:12:55;1009.13;;;31.98;49.91
37170;BME280;23062;13.952;100.608;2023-02-12T11:17:25;1009.17;;;31.93;50.61
37170;BME280;23062;13.952;100.608;2023-02-12T11:22:12;1009.22;;;31.89;50.64
37170;BME280;23062;13.952;100.608;2023-02-12T11:26:39;1009.24;;;31.88;50.70
37170;BME280;23062;13.952;100.608;2023-02-12T11:35:36;1009.37;;;31.80;50.43
37170;BME280;23062;13.952;100.608;2023-02-12T11:40:03;1009.38;;;31.78;50.33
37170;BME280;23062;13.952;100.608;2023-02-12T11:44:37;1009.42;;;31.75;50.81
37170;BME280;23062;13.952;100.608;2023-02-12T11:49:05;1009.46;;;31.75;51.13
37170;BME280;23062;13.952;100.608;2023-02-12T11:53:46;1009.50;;;31.73;51.40
37170;BME280;23062;13.952;100.608;2023-02-12T11:58:15;1009.50;;;31.74;51.78
37170;BME280;23062;13.952;100.608;2023-02-12T12:02:41;1009.53;;;31.73;52.00
37170;BME280;23062;13.952;100.608;2023-02-12T12:07:13;1009.56;;;31.67;52.71
37170;BME280;23062;13.952;100.608;2023-02-12T12:16:42;1009.66;;;31.67;52.91
37170;BME280;23062;13.952;100.608;2023-02-12T12:25:51;1009.69;;;31.68;53.31
37170;BME280;23062;13.952;100.608;2023-02-12T12:30:38;1009.73;;;31.64;53.79
37170;BME280;23062;13.952;100.608;2023-02-12T12:35:03;1009.78;;;31.61;53.61
37170;BME280;23062;13.952;100.608;2023-02-12T12:39:34;1009.83;;;31.63;54.13
37170;BME280;23062;13.952;100.608;2023-02-12T12:49:03;1009.91;;;31.54;53.64
37170;BME280;23062;13.952;100.608;2023-02-12T13:03:26;1009.97;;;31.48;54.20
37170;BME280;23062;13.952;100.608;2023-02-12T13:08:27;1010.06;;;31.75;53.62
37170;BME280;23062;13.952;100.608;2023-02-12T13:17:50;1010.23;;;31.88;53.28
37170;BME280;23062;13.952;100.608;2023-02-12T13:26:52;1010.37;;;31.90;53.51
37170;BME280;23062;13.952;100.608;2023-02-12T13:31:22;1010.45;;;31.90;53.55
37170;BME280;23062;13.952;100.608;2023-02-12T13:35:52;1010.50;;;31.90;53.70
37170;BME280;23062;13.952;100.608;2023-02-12T13:40:22;1010.52;;;31.89;53.86
37170;BME280;23062;13.952;100.608;2023-02-12T14:09:17;1010.67;;;31.86;54.75
37170;BME280;23062;13.952;100.608;2023-02-12T14:13:56;1010.74;;;31.85;54.97
37170;BME280;23062;13.952;100.608;2023-02-12T14:18:35;1010.70;;;31.84;55.10
37170;BME280;23062;13.952;100.608;2023-02-12T14:23:25;1010.74;;;31.83;55.11
37170;BME280;23062;13.952;100.608;2023-02-12T14:28:06;1010.72;;;31.83;55.15
37170;BME280;23062;13.952;100.608;2023-02-12T14:37:31;1010.75;;;31.80;55.20
37170;BME280;23062;13.952;100.608;2023-02-12T14:41:51;1010.81;;;31.80;55.28
37170;BME280;23062;13.952;100.608;2023-02-12T14:50:52;1010.92;;;31.78;55.39
37170;BME280;23062;13.952;100.608;2023-02-12T14:55:28;1010.98;;;31.77;55.41
37170;BME280;23062;13.952;100.608;2023-02-12T14:59:56;1011.01;;;31.77;55.49
37170;BME280;23062;13.952;100.608;2023-02-12T15:04:30;1011.00;;;31.76;55.57
37170;BME280;23062;13.952;100.608;2023-02-12T15:09:02;1010.96;;;31.75;55.71
37170;BME280;23062;13.952;100.608;2023-02-12T15:18:23;1011.05;;;31.73;55.90
37170;BME280;23062;13.952;100.608;2023-02-12T15:22:51;1011.05;;;31.72;55.94
37170;BME280;23062;13.952;100.608;2023-02-12T15:27:20;1011.06;;;31.70;56.01
37170;BME280;23062;13.952;100.608;2023-02-12T15:31:51;1011.04;;;31.71;56.02
37170;BME280;23062;13.952;100.608;2023-02-12T15:36:19;1011.06;;;31.71;56.03
37170;BME280;23062;13.952;100.608;2023-02-12T15:40:57;1011.12;;;31.68;56.22
37170;BME280;23062;13.952;100.608;2023-02-12T15:45:28;1011.14;;;31.68;56.16
37170;BME280;23062;13.952;100.608;2023-02-12T15:49:57;1011.14;;;31.68;56.27
37170;BME280;23062;13.952;100.608;2023-02-12T15:54:29;1011.14;;;31.66;56.47
37170;BME280;23062;13.952;100.608;2023-02-12T15:59:25;1011.21;;;31.66;56.64
37170;BME280;23062;13.952;100.608;2023-02-12T16:06:20;1011.24;;;31.74;56.58
37170;BME280;23062;13.952;100.608;2023-02-12T16:10:48;1011.26;;;31.68;56.81
37170;BME280;23062;13.952;100.608;2023-02-12T16:15:30;1011.28;;;31.66;57.01
37170;BME280;23062;13.952;100.608;2023-02-12T16:24:49;1011.16;;;31.63;57.30
37170;BME280;23062;13.952;100.608;2023-02-12T16:29:12;1011.14;;;31.63;57.51
37170;BME280;23062;13.952;100.608;2023-02-12T16:33:45;1011.15;;;31.62;57.51
37170;BME280;23062;13.952;100.608;2023-02-12T16:47:33;1011.04;;;31.61;57.70
37170;BME280;23062;13.952;100.608;2023-02-12T16:56:48;1011.02;;;31.59;57.65
37170;BME280;23062;13.952;100.608;2023-02-12T17:01:32;1010.97;;;31.59;57.66
37170;BME280;23062;13.952;100.608;2023-02-12T17:10:34;1010.92;;;31.57;57.75
37170;BME280;23062;13.952;100.608;2023-02-12T17:15:04;1010.92;;;31.57;57.80
37170;BME280;23062;13.952;100.608;2023-02-12T17:19:29;1010.85;;;31.56;57.73
37170;BME280;23062;13.952;100.608;2023-02-12T17:23:55;1010.80;;;31.55;57.76
37170;BME280;23062;13.952;100.608;2023-02-12T17:28:22;1010.82;;;31.54;57.77
37170;BME280;23062;13.952;100.608;2023-02-12T17:32:51;1010.82;;;31.54;57.73
37170;BME280;23062;13.952;100.608;2023-02-12T17:37:19;1010.73;;;31.53;57.68
37170;BME280;23062;13.952;100.608;2023-02-12T17:41:45;1010.69;;;31.52;57.66
37170;BME280;23062;13.952;100.608;2023-02-12T17:46:12;1010.69;;;31.51;57.69
37170;BME280;23062;13.952;100.608;2023-02-12T17:50:38;1010.68;;;31.51;57.68
37170;BME280;23062;13.952;100.608;2023-02-12T17:55:07;1010.63;;;31.51;57.69
37170;BME280;23062;13.952;100.608;2023-02-12T17:59:36;1010.60;;;31.50;57.66
37170;BME280;23062;13.952;100.608;2023-02-12T18:04:02;1010.56;;;31.49;57.64
37170;BME280;23062;13.952;100.608;2023-02-12T18:08:27;1010.50;;;31.49;57.63
37170;BME280;23062;13.952;100.608;2023-02-12T18:12:54;1010.50;;;31.48;57.63
37170;BME280;23062;13.952;100.608;2023-02-12T18:17:20;1010.47;;;31.47;57.57
37170;BME280;23062;13.952;100.608;2023-02-12T18:21:46;1010.44;;;31.46;57.58
37170;BME280;23062;13.952;100.608;2023-02-12T18:26:13;1010.38;;;31.43;57.58
37170;BME280;23062;13.952;100.608;2023-02-12T18:30:40;1010.34;;;31.44;57.57
37170;BME280;23062;13.952;100.608;2023-02-12T18:35:06;1010.36;;;31.43;57.57
37170;BME280;23062;13.952;100.608;2023-02-12T18:39:32;1010.35;;;31.43;57.56
37170;BME280;23062;13.952;100.608;2023-02-12T18:43:58;1010.34;;;31.42;57.56
37170;BME280;23062;13.952;100.608;2023-02-12T18:48:26;1010.29;;;31.41;57.53
37170;BME280;23062;13.952;100.608;2023-02-12T18:52:52;1010.28;;;31.40;57.50
37170;BME280;23062;13.952;100.608;2023-02-12T18:57:18;1010.26;;;31.40;57.50
37170;BME280;23062;13.952;100.608;2023-02-12T19:01:44;1010.17;;;31.39;57.56
37170;BME280;23062;13.952;100.608;2023-02-12T19:06:12;1010.14;;;31.39;57.54
37170;BME280;23062;13.952;100.608;2023-02-12T19:10:40;1010.16;;;31.37;57.53
37170;BME280;23062;13.952;100.608;2023-02-12T19:15:06;1010.16;;;31.37;57.53
37170;BME280;23062;13.952;100.608;2023-02-12T19:19:32;1010.13;;;31.36;57.54
37170;BME280;23062;13.952;100.608;2023-02-12T19:24:00;1010.14;;;31.35;57.54
37170;BME280;23062;13.952;100.608;2023-02-12T19:28:27;1010.10;;;31.35;57.59
37170;BME280;23062;13.952;100.608;2023-02-12T19:32:53;1010.09;;;31.34;57.61
37170;BME280;23062;13.952;100.608;2023-02-12T19:37:19;1010.10;;;31.33;57.69
37170;BME280;23062;13.952;100.608;2023-02-12T19:41:48;1009.99;;;31.33;57.76
37170;BME280;23062;13.952;100.608;2023-02-12T19:46:16;1009.97;;;31.32;57.93
37170;BME280;23062;13.952;100.608;2023-02-12T19:50:46;1009.94;;;31.31;57.98
37170;BME280;23062;13.952;100.608;2023-02-12T19:55:12;1009.88;;;31.31;58.23
37170;BME280;23062;13.952;100.608;2023-02-12T19:59:41;1009.86;;;31.30;58.33
37170;BME280;23062;13.952;100.608;2023-02-12T20:04:08;1009.86;;;31.29;58.29
37170;BME280;23062;13.952;100.608;2023-02-12T20:08:38;1009.85;;;31.29;58.67
37170;BME280;23062;13.952;100.608;2023-02-12T20:13:03;1009.85;;;31.28;59.02
37170;BME280;23062;13.952;100.608;2023-02-12T20:17:33;1009.78;;;31.26;58.85
37170;BME280;23062;13.952;100.608;2023-02-12T20:21:59;1009.79;;;31.26;59.28
37170;BME280;23062;13.952;100.608;2023-02-12T20:26:26;1009.82;;;31.26;59.46
37170;BME280;23062;13.952;100.608;2023-02-12T20:30:51;1009.86;;;31.24;59.49
37170;BME280;23062;13.952;100.608;2023-02-12T20:35:17;1009.86;;;31.24;59.80
37170;BME280;23062;13.952;100.608;2023-02-12T20:39:44;1009.91;;;31.23;59.54
37170;BME280;23062;13.952;100.608;2023-02-12T20:44:14;1009.91;;;31.22;59.53
37170;BME280;23062;13.952;100.608;2023-02-12T20:48:40;1009.89;;;31.22;59.31
37170;BME280;23062;13.952;100.608;2023-02-12T20:53:06;1009.86;;;31.19;59.49
37170;BME280;23062;13.952;100.608;2023-02-12T20:57:31;1009.83;;;30.86;61.84
37170;BME280;23062;13.952;100.608;2023-02-12T21:01:57;1009.86;;;30.80;62.50
37170;BME280;23062;13.952;100.608;2023-02-12T21:06:23;1009.86;;;30.84;62.51
37170;BME280;23062;13.952;100.608;2023-02-12T21:10:49;1009.91;;;30.64;63.15
37170;BME280;23062;13.952;100.608;2023-02-12T21:15:16;1009.92;;;30.53;64.00
37170;BME280;23062;13.952;100.608;2023-02-12T21:19:41;1009.91;;;30.44;64.29
37170;BME280;23062;13.952;100.608;2023-02-12T21:24:08;1009.91;;;30.28;64.79
37170;BME280;23062;13.952;100.608;2023-02-12T21:28:40;1009.93;;;30.30;64.72
37170;BME280;23062;13.952;100.608;2023-02-12T21:33:44;1009.90;;;30.33;64.67
37170;BME280;23062;13.952;100.608;2023-02-12T21:39:20;1009.95;;;30.30;64.72
37170;BME280;23062;13.952;100.608;2023-02-12T21:43:55;1010.03;;;30.24;65.00
37170;BME280;23062;13.952;100.608;2023-02-12T21:48:19;1010.09;;;30.18;65.32
37170;BME280;23062;13.952;100.608;2023-02-12T21:52:44;1010.12;;;30.18;65.33
37170;BME280;23062;13.952;100.608;2023-02-12T21:57:10;1010.09;;;30.27;65.02
37170;BME280;23062;13.952;100.608;2023-02-12T22:01:43;1010.09;;;30.25;65.06
37170;BME280;23062;13.952;100.608;2023-02-12T22:06:09;1010.09;;;29.75;66.94
37170;BME280;23062;13.952;100.608;2023-02-12T22:10:36;1010.11;;;29.48;68.17
37170;BME280;23062;13.952;100.608;2023-02-12T22:15:02;1010.14;;;29.46;68.39
37170;BME280;23062;13.952;100.608;2023-02-12T22:19:28;1010.12;;;29.42;68.70
37170;BME280;23062;13.952;100.608;2023-02-12T22:23:54;1010.14;;;29.55;68.51
37170;BME280;23062;13.952;100.608;2023-02-12T22:28:19;1010.21;;;29.52;68.55
37170;BME280;23062;13.952;100.608;2023-02-12T22:32:45;1010.22;;;29.44;68.89
37170;BME280;23062;13.952;100.608;2023-02-12T22:41:41;1010.44;;;29.31;69.54
37170;BME280;23062;13.952;100.608;2023-02-12T22:46:18;1010.50;;;29.28;69.49
37170;BME280;23062;13.952;100.608;2023-02-12T22:50:44;1010.55;;;29.21;69.83
37170;BME280;23062;13.952;100.608;2023-02-12T22:55:10;1010.57;;;29.18;69.99
37170;BME280;23062;13.952;100.608;2023-02-12T22:59:38;1010.65;;;29.71;68.24
37170;BME280;23062;13.952;100.608;2023-02-12T23:04:04;1010.73;;;30.00;66.77
37170;BME280;23062;13.952;100.608;2023-02-12T23:08:29;1010.78;;;30.16;66.04
37170;BME280;23062;13.952;100.608;2023-02-12T23:12:56;1010.77;;;30.26;65.72
37170;BME280;23062;13.952;100.608;2023-02-12T23:17:22;1010.74;;;30.32;65.49
37170;BME280;23062;13.952;100.608;2023-02-12T23:21:47;1010.69;;;30.36;65.30
37170;BME280;23062;13.952;100.608;2023-02-12T23:26:17;1010.71;;;30.37;65.24
37170;BME280;23062;13.952;100.608;2023-02-12T23:30:43;1010.75;;;30.37;65.27
37170;BME280;23062;13.952;100.608;2023-02-12T23:35:09;1010.82;;;30.40;65.19
37170;BME280;23062;13.952;100.608;2023-02-12T23:39:55;1010.83;;;30.42;65.13
37170;BME280;23062;13.952;100.608;2023-02-12T23:45:13;1010.90;;;30.42;65.22
37170;BME280;23062;13.952;100.608;2023-02-12T23:49:39;1010.91;;;30.41;65.22
37170;BME280;23062;13.952;100.608;2023-02-12T23:54:07;1010.94;;;30.42;65.27
37170;BME280;23062;13.952;100.608;2023-02-12T23:58:35;1010.99;;;30.40;65.28
